This is the latest recevied weather packets stored in our database for station/object HB9DOZ-13. If no packets are shown the sender has not sent any weather packets the latest 10 day(s).
| Time | Temp. | Humidity | Pressure | Rain* | Wind** | Luminosity | Snow |
|---|---|---|---|---|---|---|---|
| 1777574135 | 13.89° C | 41% | - | 0 mm | - | - | - |
| 1777573516 | 13.89° C | 43% | - | 0 mm | - | - | - |
| 1777563916 | 17.22° C | 40% | - | 0 mm | - | - | - |
| 1777558517 | 17.78° C | 42% | - | 0 mm | - | - | - |
| 1777551937 | 17.22° C | 48% | - | 0 mm | - | - | - |
| 1777550717 | 16.67° C | 50% | - | 0 mm | - | - | - |
| 1777545917 | 15° C | 54% | - | 0 mm | - | - | - |
| 1777541118 | 12.78° C | 57% | - | 0 mm | - | - | - |
| 1777539916 | 12.22° C | 58% | - | 0 mm | - | - | - |
| 1777539317 | 12.22° C | 58% | - | 0 mm | - | - | - |
| 1777531556 | 8.89° C | 60% | - | 0 mm | - | - | - |
| 1777530916 | 8.89° C | 60% | - | 0 mm | - | - | - |
| 1777529717 | 8.33° C | 60% | - | 0 mm | - | - | - |
| 1777527316 | 7.78° C | 61% | - | 0 mm | - | - | - |
| 1777522516 | 7.22° C | 61% | - | 0 mm | - | - | - |
| 1777520717 | 7.22° C | 60% | - | 0 mm | - | - | - |
| 1777518916 | 7.78° C | 62% | - | 0 mm | - | - | - |
| 1777514116 | 9.44° C | 55% | - | 0 mm | - | - | - |
| 1777513516 | 9.44° C | 54% | - | 0 mm | - | - | - |
| 1777502115 | 12.78° C | 48% | - | 0 mm | - | - | - |
| 1777499717 | 13.89° C | 47% | - | 0 mm | - | - | - |
| 1777496716 | 13.89° C | 47% | - | 0 mm | - | - | - |
| 1777495537 | 14.44° C | 46% | - | 0 mm | - | - | - |
| 1777494917 | 14.44° C | 46% | - | 0 mm | - | - | - |
| 1777491917 | 15° C | 44% | - | 0 mm | - | - | - |
* Rain latest hour (hover to see other rain measurements)
** Current wind speed in m/s (hover to see current wind gust speed)